Time;durP1;ratioP1;P1;durP2;ratioP2;P2;SDS_P1;SDS_P2;PMS_P1;PMS_P2;Temp;Humidity;BMP_temperature;BMP_pressure;BME280_temperature;BME280_humidity;BME280_pressure;Samples;Min_cycle;Max_cycle;Signal;HPM_P1;HPM_P2
2023/02/07 00:00:18;;;;;;;36.85;9.73;;;;;;;13.83;65.83;103826.25;5095989;28;20051;-50
2023/02/07 00:02:45;;;;;;;35.42;10.25;;;;;;;14.08;64.86;103833.88;5103399;28;20051;-51
2023/02/07 00:05:11;;;;;;;24.85;9.13;;;;;;;14.12;64.12;103825.38;5104132;28;20043;-52
2023/02/07 00:07:37;;;;;;;26.73;10.38;;;;;;;14.16;63.83;103826.78;5102579;28;20040;-52
2023/02/07 00:10:04;;;;;;;28.10;10.20;;;;;;;14.08;64.16;103823.13;5097666;28;20059;-52
2023/02/07 00:12:29;;;;;;;37.15;10.52;;;;;;;13.96;64.87;103828.69;5098664;28;20690;-51
2023/02/07 00:14:55;;;;;;;25.27;9.63;;;;;;;13.75;65.77;103836.91;5098157;28;20060;-51
2023/02/07 00:17:21;;;;;;;36.75;11.05;;;;;;;13.69;66.05;103835.63;5096306;28;20096;-52
2023/02/07 00:19:46;;;;;;;36.90;11.23;;;;;;;13.78;65.97;103828.53;5098500;28;20033;-53
2023/02/07 00:22:11;;;;;;;29.93;11.23;;;;;;;13.82;65.98;103824.56;5096708;28;20269;-50
2023/02/07 00:24:37;;;;;;;33.13;12.17;;;;;;;13.72;66.16;103811.13;5101107;28;20177;-53
2023/02/07 00:27:02;;;;;;;33.73;10.30;;;;;;;13.77;66.42;103826.84;5101149;28;20064;-54
2023/02/07 00:29:28;;;;;;;28.90;11.03;;;;;;;13.72;66.82;103818.38;5077171;28;20028;-52
2023/02/07 00:31:53;;;;;;;32.47;10.53;;;;;;;13.66;66.67;103813.56;5101316;28;20027;-50
2023/02/07 00:34:19;;;;;;;51.42;12.05;;;;;;;13.36;66.74;103813.53;5073512;28;20048;-49
2023/02/07 00:36:44;;;;;;;35.63;11.73;;;;;;;13.67;66.59;103813.41;5066611;28;20091;-51
2023/02/07 00:39:12;;;;;;;38.87;12.23;;;;;;;13.57;67.49;103820.66;5062025;28;20092;-50
2023/02/07 00:41:39;;;;;;;42.28;13.27;;;;;;;13.62;67.20;103818.38;5062338;28;20037;-55
2023/02/07 00:44:04;;;;;;;36.13;11.48;;;;;;;13.34;67.28;103816.34;5063614;28;20029;-50
2023/02/07 00:46:31;;;;;;;35.73;12.73;;;;;;;13.02;70.50;103828.22;5060834;28;20030;-51
2023/02/07 00:48:56;;;;;;;38.60;12.60;;;;;;;13.03;70.59;103812.94;5066842;28;20446;-52
2023/02/07 00:51:25;;;;;;;31.73;11.30;;;;;;;13.00;69.78;103811.38;5066066;28;20116;-52
2023/02/07 00:53:55;;;;;;;28.73;11.10;;;;;;;13.01;70.91;103807.72;5062883;28;20059;-49
2023/02/07 00:56:22;;;;;;;36.50;11.07;;;;;;;12.87;70.93;103813.47;5062801;28;20045;-52
2023/02/07 00:58:49;;;;;;;34.13;11.32;;;;;;;12.84;71.04;103814.59;5061265;28;20033;-50
2023/02/07 01:01:14;;;;;;;30.50;12.23;;;;;;;12.68;71.53;103812.41;5060585;28;20052;-51
2023/02/07 01:03:40;;;;;;;33.15;11.38;;;;;;;13.15;69.97;103817.19;5063476;28;20040;-49
2023/02/07 01:06:07;;;;;;;29.57;11.30;;;;;;;13.56;68.63;103837.78;5068567;28;20037;-47
2023/02/07 01:08:34;;;;;;;33.97;11.95;;;;;;;13.30;69.04;103823.00;5060371;28;20120;-52
2023/02/07 01:11:05;;;;;;;30.52;12.10;;;;;;;13.24;69.70;103820.88;5062868;28;20037;-51
2023/02/07 01:13:32;;;;;;;38.67;12.07;;;;;;;13.41;68.50;103821.19;5067219;28;20080;-49
2023/02/07 01:15:58;;;;;;;33.77;11.97;;;;;;;13.11;70.73;103820.28;5064211;28;20124;-54
2023/02/07 01:18:23;;;;;;;27.73;10.67;;;;;;;12.89;71.32;103816.84;5065899;28;20270;-50
2023/02/07 01:20:49;;;;;;;34.10;11.15;;;;;;;13.10;71.69;103814.09;5068123;28;20029;-51
2023/02/07 01:23:15;;;;;;;27.57;11.60;;;;;;;13.15;71.22;103813.69;5062763;28;20033;-51
2023/02/07 01:25:44;;;;;;;35.05;12.05;;;;;;;13.11;71.62;103815.78;5065100;28;20040;-50
2023/02/07 01:28:10;;;;;;;29.63;12.77;;;;;;;13.07;72.30;103816.19;5063245;28;20040;-54
2023/02/07 01:30:41;;;;;;;35.63;12.02;;;;;;;12.21;74.37;103801.34;5061793;28;20065;-54
2023/02/07 01:33:06;;;;;;;41.75;13.23;;;;;;;12.93;73.00;103806.69;5075066;28;20040;-56
2023/02/07 01:35:32;;;;;;;45.70;15.20;;;;;;;13.04;71.35;103814.66;5086300;28;20035;-52
2023/02/07 01:38:01;;;;;;;34.83;11.65;;;;;;;12.82;71.13;103821.09;5098450;28;20047;-55
2023/02/07 01:40:28;;;;;;;39.85;13.30;;;;;;;12.47;73.76;103824.09;5079719;28;20035;-55
2023/02/07 01:42:54;;;;;;;40.80;16.10;;;;;;;12.32;75.53;103828.13;5097481;28;20033;-53
2023/02/07 01:45:31;;;;;;;34.75;12.57;;;;;;;12.43;75.19;103827.19;5105683;28;20062;-53
2023/02/07 01:48:11;;;;;;;38.75;12.35;;;;;;;12.59;74.14;103838.28;5098630;28;20044;-54
2023/02/07 01:50:40;;;;;;;39.70;12.80;;;;;;;12.40;75.13;103832.81;5100664;28;20033;-51
2023/02/07 01:53:06;;;;;;;36.15;12.60;;;;;;;12.52;75.27;103826.34;5099571;28;20041;-52
2023/02/07 01:55:35;;;;;;;37.67;11.55;;;;;;;12.70;73.98;103823.91;5101945;28;20048;-52
2023/02/07 01:58:04;;;;;;;35.30;12.30;;;;;;;12.93;72.46;103833.56;5103941;28;20027;-55
2023/02/07 02:00:30;;;;;;;38.65;13.68;;;;;;;13.05;71.17;103832.47;5084315;28;20032;-52
2023/02/07 02:02:56;;;;;;;34.40;12.57;;;;;;;12.66;72.22;103838.56;5082995;28;20063;-54
2023/02/07 02:05:23;;;;;;;35.28;12.40;;;;;;;12.75;71.11;103835.06;5080833;28;20032;-53
2023/02/07 02:07:48;;;;;;;33.28;11.35;;;;;;;12.73;70.81;103826.31;5100131;28;20024;-51
2023/02/07 02:10:17;;;;;;;46.30;13.23;;;;;;;12.27;72.71;103831.19;5103769;28;20035;-54
2023/02/07 02:13:00;;;;;;;33.30;11.70;;;;;;;12.92;69.87;103827.34;5097545;28;20067;-48
2023/02/07 02:15:33;;;;;;;38.25;12.48;;;;;;;12.55;69.86;103817.19;5093136;28;20032;-53
2023/02/07 02:18:21;;;;;;;43.30;12.90;;;;;;;12.47;70.14;103821.41;5081617;28;20032;-52
2023/02/07 02:21:02;;;;;;;;;;;;;;;12.35;70.38;103818.97;5081743;28;20062;-52
2023/02/07 02:23:39;;;;;;;37.47;13.73;;;;;;;12.32;72.13;103820.06;5101226;28;19913;-49
2023/02/07 02:26:23;;;;;;;33.10;11.50;;;;;;;12.63;71.16;103833.47;5096444;28;20056;-49
2023/02/07 02:29:31;;;;;;;42.67;12.88;;;;;;;12.85;69.32;103827.06;5104256;28;20028;-49
2023/02/07 02:32:14;;;;;;;41.53;13.07;;;;;;;12.63;69.54;103828.09;5074034;28;20024;-49
2023/02/07 02:34:51;;;;;;;45.95;13.07;;;;;;;12.50;70.30;103827.50;5097362;28;20052;-52
2023/02/07 02:37:51;;;;;;;44.42;13.15;;;;;;;12.50;69.99;103835.53;5099152;28;20031;-50
2023/02/07 02:40:33;;;;;;;45.35;14.10;;;;;;;12.22;70.99;103836.13;5074720;28;20036;-54
2023/02/07 02:43:06;;;;;;;45.97;13.88;;;;;;;12.06;71.15;103831.22;5081578;28;20032;-51
2023/02/07 02:45:39;;;;;;;42.22;14.65;;;;;;;12.00;71.74;103827.19;5119909;28;20358;-49
2023/02/07 02:48:09;;;;;;;35.55;12.57;;;;;;;12.12;71.61;103830.69;5100447;28;20051;-52
2023/02/07 02:50:35;;;;;;;44.63;14.10;;;;;;;11.79;72.06;103834.38;5081002;28;20032;-51
2023/02/07 02:53:01;;;;;;;39.10;13.00;;;;;;;12.21;70.20;103821.00;5085791;28;20060;-48
2023/02/07 02:56:00;;;;;;;38.45;13.15;;;;;;;12.15;69.40;103818.84;5085948;28;20032;-52
2023/02/07 02:58:43;;;;;;;49.78;12.80;;;;;;;11.72;71.79;103820.66;5124150;28;20110;-52
2023/02/07 03:01:35;;;;;;;36.63;12.75;;;;;;;11.68;72.28;103821.88;5091443;28;20063;-55
2023/02/07 03:04:31;;;;;;;40.45;14.02;;;;;;;12.05;71.52;103814.25;5073994;28;20048;-52
2023/02/07 03:07:22;;;;;;;45.28;15.82;;;;;;;11.69;72.80;103812.88;5080994;28;20036;-52
2023/02/07 03:10:03;;;;;;;34.63;12.40;;;;;;;11.74;73.00;103810.63;5100155;28;20047;-54
2023/02/07 03:12:38;;;;;;;37.25;13.70;;;;;;;11.55;72.94;103812.22;5101937;28;20040;-51
2023/02/07 03:15:14;;;;;;;37.25;13.30;;;;;;;11.78;73.41;103812.09;5100406;28;20051;-53
2023/02/07 03:17:56;;;;;;;46.25;14.35;;;;;;;11.45;73.75;103820.19;5079571;28;20028;-54
2023/02/07 03:20:27;;;;;;;43.15;16.55;;;;;;;11.90;72.22;103811.03;5116647;28;20054;-52
2023/02/07 03:22:57;;;;;;;40.85;14.27;;;;;;;11.70;71.38;103807.38;5083447;28;20091;-51
2023/02/07 03:25:24;;;;;;;41.17;12.35;;;;;;;11.58;72.58;103813.78;5100769;28;20090;-51
2023/02/07 03:27:52;;;;;;;43.35;15.05;;;;;;;11.76;71.49;103809.53;5078551;28;20032;-53
2023/02/07 03:30:20;;;;;;;37.72;13.80;;;;;;;11.93;71.16;103803.72;5097003;28;20035;-54
2023/02/07 03:32:54;;;;;;;38.85;15.07;;;;;;;11.82;70.97;103808.19;5102453;28;20048;-53
2023/02/07 03:35:48;;;;;;;42.08;13.98;;;;;;;11.65;72.08;103806.06;5096708;28;20328;-50
2023/02/07 03:38:14;;;;;;;37.63;14.40;;;;;;;11.79;70.42;103799.53;5090251;28;20036;-51
2023/02/07 03:40:44;;;;;;;43.00;14.82;;;;;;;11.76;70.58;103804.19;5100596;28;20032;-50
2023/02/07 03:43:16;;;;;;;39.47;14.82;;;;;;;11.71;71.45;103809.09;5095121;28;20040;-52
2023/02/07 03:45:41;;;;;;;44.22;14.90;;;;;;;11.71;71.40;103797.50;5099711;28;20036;-49
2023/02/07 03:48:08;;;;;;;28.52;11.98;;;;;;;11.60;72.54;103801.94;5102385;28;20029;-50
2023/02/07 03:50:34;;;;;;;43.25;15.38;;;;;;;11.48;72.70;103800.28;5100595;28;20072;-50
2023/02/07 03:52:59;;;;;;;45.63;14.63;;;;;;;11.51;72.91;103802.72;5097515;28;20036;-47
2023/02/07 03:55:25;;;;;;;35.93;12.03;;;;;;;11.47;72.51;103804.81;5098487;28;20039;-49
2023/02/07 03:57:50;;;;;;;57.97;16.20;;;;;;;11.60;72.07;103799.28;5097512;28;20326;-51
2023/02/07 04:00:16;;;;;;;43.63;16.02;;;;;;;11.67;72.14;103804.09;5099149;28;20055;-51
2023/02/07 04:02:41;;;;;;;49.27;16.20;;;;;;;11.59;72.82;103805.63;5097715;28;20040;-51
2023/02/07 04:05:08;;;;;;;46.05;15.50;;;;;;;11.50;72.57;103802.84;5098154;28;20092;-51
2023/02/07 04:07:34;;;;;;;40.38;14.57;;;;;;;11.57;72.35;103810.25;5099378;28;20068;-50
2023/02/07 04:10:01;;;;;;;45.15;17.00;;;;;;;11.57;72.50;103812.94;5095177;28;20020;-50
2023/02/07 04:12:31;;;;;;;46.97;17.70;;;;;;;11.52;73.07;103816.97;5098652;28;20059;-50
2023/02/07 04:14:57;;;;;;;42.00;15.60;;;;;;;11.47;72.87;103801.28;5106447;28;20477;-51
2023/02/07 04:17:23;;;;;;;44.63;14.50;;;;;;;11.58;72.47;103800.38;5099128;28;20058;-53
2023/02/07 04:19:48;;;;;;;48.33;17.20;;;;;;;11.46;73.10;103799.56;5099062;28;20041;-53
2023/02/07 04:22:14;;;;;;;45.50;17.03;;;;;;;11.45;73.03;103801.41;5097104;28;20028;-54
2023/02/07 04:24:39;;;;;;;49.70;17.93;;;;;;;11.10;73.04;103794.47;5097176;28;20292;-54
2023/02/07 04:27:05;;;;;;;57.57;18.20;;;;;;;11.44;71.21;103804.22;5095626;28;20056;-52
2023/02/07 04:29:30;;;;;;;48.42;16.80;;;;;;;11.38;72.66;103802.06;5098770;28;20039;-52
2023/02/07 04:31:56;;;;;;;34.27;12.93;;;;;;;11.23;72.77;103801.50;5096443;28;20056;-50
2023/02/07 04:34:21;;;;;;;51.07;16.17;;;;;;;11.32;71.70;103796.22;5100856;28;20277;-51
2023/02/07 04:36:47;;;;;;;54.13;17.48;;;;;;;11.13;72.34;103793.38;5097178;28;20028;-51
2023/02/07 04:39:12;;;;;;;42.80;17.47;;;;;;;10.88;73.74;103784.69;5093983;28;20032;-49
2023/02/07 04:41:38;;;;;;;41.50;15.93;;;;;;;11.03;72.81;103791.44;5103768;28;20103;-52
2023/02/07 04:44:03;;;;;;;52.40;16.37;;;;;;;10.99;72.01;103781.94;5095298;28;20024;-52
2023/02/07 04:46:29;;;;;;;37.45;13.52;;;;;;;11.12;71.60;103789.00;5101622;28;20050;-50
2023/02/07 04:48:54;;;;;;;49.03;17.20;;;;;;;10.91;71.49;103781.75;5095561;28;20107;-53
2023/02/07 04:51:20;;;;;;;44.00;14.70;;;;;;;10.80;70.97;103784.44;5096851;28;20273;-50
2023/02/07 04:53:45;;;;;;;44.73;17.50;;;;;;;11.25;70.74;103781.63;5109029;28;20034;-54
2023/02/07 04:56:11;;;;;;;49.53;17.73;;;;;;;11.15;71.17;103788.72;5093048;28;20032;-50
2023/02/07 04:58:37;;;;;;;58.20;18.75;;;;;;;10.59;73.32;103779.81;5096062;28;20083;-51
2023/02/07 05:01:03;;;;;;;53.17;18.70;;;;;;;10.93;71.25;103784.28;5100977;28;20062;-51
2023/02/07 05:03:29;;;;;;;46.90;16.73;;;;;;;10.70;72.20;103784.31;5098262;28;20028;-53
2023/02/07 05:05:55;;;;;;;58.72;20.13;;;;;;;10.93;70.98;103789.63;5095362;28;20032;-49
2023/02/07 05:08:21;;;;;;;52.72;18.05;;;;;;;11.22;70.05;103789.91;5099533;28;20032;-52
2023/02/07 05:10:50;;;;;;;52.92;18.15;;;;;;;11.07;69.89;103784.00;5082096;28;20043;-51
2023/02/07 05:13:16;;;;;;;50.30;18.02;;;;;;;11.16;70.27;103785.06;5096391;28;20041;-49
2023/02/07 05:15:42;;;;;;;57.95;17.90;;;;;;;11.05;70.38;103780.59;5093510;28;20024;-49
2023/02/07 05:18:07;;;;;;;50.80;19.60;;;;;;;11.18;69.55;103794.66;5100149;28;20036;-51
2023/02/07 05:20:32;;;;;;;52.70;18.90;;;;;;;11.18;69.28;103796.50;5102292;28;20280;-47
2023/02/07 05:22:58;;;;;;;53.03;19.20;;;;;;;11.03;69.43;103796.78;5100661;28;20047;-49
2023/02/07 05:25:23;;;;;;;58.47;21.27;;;;;;;11.14;69.61;103797.75;5099256;28;20333;-51
2023/02/07 05:27:49;;;;;;;60.53;20.80;;;;;;;10.99;69.97;103800.69;5101137;28;20058;-49
2023/02/07 05:30:15;;;;;;;52.07;18.63;;;;;;;11.10;69.02;103799.81;5100642;28;20280;-53
2023/02/07 05:35:24;;;;;;;59.97;20.95;;;;;;;11.11;68.14;103806.03;5098473;28;20269;-53
2023/02/07 05:37:50;;;;;;;55.45;18.80;;;;;;;11.10;67.91;103812.38;5093666;28;20047;-51
2023/02/07 05:40:15;;;;;;;63.13;19.63;;;;;;;10.79;68.38;103820.22;5096866;28;20032;-52
2023/02/07 05:42:41;;;;;;;65.03;19.17;;;;;;;10.49;69.32;103813.66;5100842;28;20035;-54
2023/02/07 05:45:07;;;;;;;67.45;20.85;;;;;;;10.50;71.34;103815.38;5099433;28;20039;-48
2023/02/07 05:47:33;;;;;;;54.05;18.70;;;;;;;10.42;69.72;103815.97;5098859;28;20036;-53
2023/02/07 05:49:59;;;;;;;53.78;18.35;;;;;;;10.26;70.26;103821.63;5101040;28;20036;-52
2023/02/07 05:52:24;;;;;;;47.73;17.63;;;;;;;10.35;70.96;103826.25;5103009;28;20104;-52
2023/02/07 05:54:50;;;;;;;57.25;18.35;;;;;;;10.39;70.44;103819.72;5100483;28;20307;-54
2023/02/07 05:57:16;;;;;;;50.35;18.50;;;;;;;9.89;71.69;103820.00;5093703;28;20100;-52
2023/02/07 05:59:42;;;;;;;58.00;17.50;;;;;;;9.83;72.32;103829.31;5097672;28;20083;-50
2023/02/07 06:02:07;;;;;;;53.13;17.73;;;;;;;9.45;73.82;103841.94;5098423;28;20277;-51
2023/02/07 06:04:32;;;;;;;61.63;19.70;;;;;;;9.86;73.31;103839.78;5097487;28;20105;-52
2023/02/07 06:06:58;;;;;;;47.87;18.50;;;;;;;9.81;72.18;103846.47;5096627;28;20040;-51
2023/02/07 06:09:24;;;;;;;54.17;18.80;;;;;;;9.67;71.83;103843.00;5097044;28;20048;-50
2023/02/07 06:11:49;;;;;;;48.30;17.17;;;;;;;9.79;71.42;103830.53;5096605;28;20044;-51
2023/02/07 06:14:15;;;;;;;62.40;20.55;;;;;;;10.42;69.35;103835.56;5095592;28;20034;-52
2023/02/07 06:16:40;;;;;;;51.17;18.63;;;;;;;10.38;68.76;103833.19;5098882;28;20099;-52
2023/02/07 06:19:06;;;;;;;49.10;16.27;;;;;;;10.53;67.79;103836.53;5102081;28;20265;-54
2023/02/07 06:21:31;;;;;;;59.72;19.77;;;;;;;10.49;67.74;103840.41;5104482;28;20032;-51
2023/02/07 06:23:57;;;;;;;61.27;19.30;;;;;;;10.55;67.27;103842.59;5101597;28;20056;-54
2023/02/07 06:26:22;;;;;;;51.47;16.87;;;;;;;10.45;66.50;103846.03;5101046;28;20032;-54
2023/02/07 06:28:47;;;;;;;48.00;18.53;;;;;;;10.09;67.66;103844.34;5102165;28;20032;-49
2023/02/07 06:31:13;;;;;;;56.70;19.23;;;;;;;10.03;67.91;103851.00;5096133;28;20112;-58
2023/02/07 06:33:38;;;;;;;63.27;20.23;;;;;;;10.04;68.17;103845.56;5099317;28;20059;-51
2023/02/07 06:36:04;;;;;;;54.50;19.03;;;;;;;10.15;67.46;103842.06;5100243;28;20028;-51
2023/02/07 06:38:30;;;;;;;53.97;20.17;;;;;;;10.00;68.38;103838.72;5099263;28;20036;-55
2023/02/07 06:40:55;;;;;;;52.08;18.10;;;;;;;9.96;68.53;103847.94;5103819;28;20036;-53
2023/02/07 06:43:21;;;;;;;51.67;17.85;;;;;;;9.92;68.06;103840.28;5104304;28;20020;-50
2023/02/07 06:45:46;;;;;;;56.53;20.92;;;;;;;10.00;68.32;103845.91;5101795;28;20052;-48
2023/02/07 06:48:12;;;;;;;59.77;20.00;;;;;;;9.70;69.92;103849.94;5101294;28;20044;-47
2023/02/07 06:50:37;;;;;;;47.97;15.02;;;;;;;9.66;70.20;103854.66;5102689;28;20028;-52
2023/02/07 06:53:03;;;;;;;61.97;21.08;;;;;;;9.75;69.45;103853.97;5098628;28;20028;-52
2023/02/07 06:55:31;;;;;;;68.97;19.50;;;;;;;9.82;69.37;103856.19;5099852;28;20036;-51
2023/02/07 06:57:57;;;;;;;56.85;20.05;;;;;;;9.71;69.42;103857.84;5102251;28;20066;-51
2023/02/07 07:00:23;;;;;;;63.00;20.95;;;;;;;9.67;68.93;103859.03;5100530;28;20037;-54
2023/02/07 07:02:50;;;;;;;48.50;18.00;;;;;;;9.80;68.36;103864.31;5096693;28;20121;-51
2023/02/07 07:05:15;;;;;;;55.10;19.13;;;;;;;9.60;69.55;103869.31;5098748;28;20032;-48
2023/02/07 07:07:41;;;;;;;53.50;18.43;;;;;;;9.56;69.76;103867.84;5102637;28;20129;-54
2023/02/07 07:10:07;;;;;;;61.77;20.53;;;;;;;9.65;69.63;103884.16;5098882;28;20304;-47
2023/02/07 07:12:33;;;;;;;63.88;21.38;;;;;;;9.66;69.52;103881.38;5094719;28;20097;-48
2023/02/07 07:14:58;;;;;;;57.28;16.02;;;;;;;9.73;69.19;103879.13;5099367;28;20492;-50
2023/02/07 07:17:24;;;;;;;66.70;21.07;;;;;;;10.01;68.42;103875.19;5100836;28;20094;-51
2023/02/07 07:19:49;;;;;;;57.13;19.20;;;;;;;10.01;69.02;103872.50;5099133;28;20272;-52
2023/02/07 07:22:15;;;;;;;50.92;16.10;;;;;;;10.04;69.18;103874.13;5101483;28;20029;-49
2023/02/07 07:24:41;;;;;;;70.68;22.60;;;;;;;9.87;70.21;103873.56;5098777;28;20038;-51
2023/02/07 07:27:06;;;;;;;73.17;22.63;;;;;;;9.83;70.69;103874.78;5096772;28;20040;-54
2023/02/07 07:29:32;;;;;;;78.60;24.52;;;;;;;10.19;70.64;103877.44;5102899;28;20032;-49
2023/02/07 07:31:57;;;;;;;76.73;22.87;;;;;;;10.33;70.42;103885.25;5097980;28;20120;-51
2023/02/07 07:34:23;;;;;;;81.72;23.98;;;;;;;10.61;69.78;103885.78;5102449;28;20048;-53
2023/02/07 07:36:49;;;;;;;59.40;21.20;;;;;;;10.67;70.06;103879.13;5102954;28;20045;-52
2023/02/07 07:39:15;;;;;;;63.90;21.40;;;;;;;10.67;70.25;103876.44;5098216;28;20297;-50
2023/02/07 07:41:41;;;;;;;76.18;20.55;;;;;;;10.64;70.68;103871.34;5099503;28;20059;-54
2023/02/07 07:44:14;;;;;;;59.88;20.08;;;;;;;10.82;70.87;103882.41;5088736;28;20024;-49
2023/02/07 07:46:41;;;;;;;66.20;20.35;;;;;;;10.94;70.07;103880.56;5104818;28;20028;-57
2023/02/07 07:49:07;;;;;;;53.15;18.45;;;;;;;11.07;69.97;103883.09;5095640;28;20037;-54
2023/02/07 07:51:33;;;;;;;50.20;20.10;;;;;;;11.03;69.19;103882.50;5096092;28;20044;-51
2023/02/07 07:54:00;;;;;;;46.50;18.77;;;;;;;11.07;68.71;103890.28;5099679;28;20067;-49
2023/02/07 07:56:28;;;;;;;51.60;19.48;;;;;;;10.99;68.55;103885.56;5096871;28;20032;-50
2023/02/07 07:58:54;;;;;;;53.83;19.92;;;;;;;11.05;68.11;103891.25;5103188;28;20048;-49
2023/02/07 08:01:19;;;;;;;56.40;19.85;;;;;;;11.08;67.83;103900.03;5097300;28;20040;-52
2023/02/07 08:03:45;;;;;;;60.72;19.85;;;;;;;10.94;68.08;103893.09;5100757;28;20025;-49
2023/02/07 08:06:10;;;;;;;44.97;18.45;;;;;;;10.97;67.90;103887.50;5097823;28;20087;-49
2023/02/07 08:08:36;;;;;;;56.20;19.50;;;;;;;10.58;68.36;103893.19;5104032;28;20048;-49
2023/02/07 08:11:03;;;;;;;65.60;20.87;;;;;;;10.51;68.99;103889.31;5099691;28;20284;-50
2023/02/07 08:13:29;;;;;;;126.80;23.33;;;;;;;10.22;68.47;103895.06;5099332;28;20059;-50
2023/02/07 08:15:55;;;;;;;196.73;27.65;;;;;;;9.42;69.89;103900.94;5096660;28;20084;-48
2023/02/07 08:18:20;;;;;;;72.03;19.13;;;;;;;9.64;69.44;103895.81;5097318;28;20043;-50
2023/02/07 08:20:48;;;;;;;33.80;16.73;;;;;;;10.04;68.83;103888.34;5101859;28;20062;-50
2023/02/07 08:23:13;;;;;;;45.45;17.65;;;;;;;10.01;68.18;103888.56;5094459;28;20028;-48
2023/02/07 08:25:39;;;;;;;34.33;12.80;;;;;;;10.09;68.58;103892.50;5099081;28;20103;-48
2023/02/07 08:28:04;;;;;;;45.30;17.65;;;;;;;9.85;67.43;103899.56;5101359;28;20048;-49
2023/02/07 08:30:31;;;;;;;36.15;16.17;;;;;;;9.79;67.97;103892.00;5097952;28;20044;-49
2023/02/07 08:32:57;;;;;;;51.75;17.65;;;;;;;9.69;67.76;103891.00;5106015;28;20048;-47
2023/02/07 08:35:22;;;;;;;38.47;15.93;;;;;;;9.92;67.24;103891.94;5099613;28;20040;-52
2023/02/07 08:37:49;;;;;;;48.85;16.08;;;;;;;9.99;67.40;103879.81;5107223;28;20027;-52
2023/02/07 08:40:14;;;;;;;47.33;16.52;;;;;;;10.12;67.19;103884.22;5106343;28;20091;-51
2023/02/07 08:42:40;;;;;;;39.03;15.80;;;;;;;9.67;66.53;103892.91;5103942;28;20028;-51
2023/02/07 08:45:06;;;;;;;33.13;13.07;;;;;;;9.55;68.26;103884.84;5105772;28;20042;-50
2023/02/07 08:47:32;;;;;;;37.95;14.98;;;;;;;9.66;68.15;103883.19;5103398;28;20050;-52
2023/02/07 08:49:57;;;;;;;35.37;14.53;;;;;;;10.00;67.23;103881.50;5105833;28;20028;-51
2023/02/07 08:52:23;;;;;;;51.30;15.97;;;;;;;9.86;68.42;103898.59;5097835;28;20277;-50
2023/02/07 08:54:48;;;;;;;37.90;14.87;;;;;;;9.63;67.80;103891.44;5099009;28;20031;-50
2023/02/07 08:57:14;;;;;;;31.20;12.47;;;;;;;10.33;67.56;103890.59;5094429;28;20300;-52
2023/02/07 08:59:40;;;;;;;41.00;14.75;;;;;;;10.95;65.15;103892.97;5095728;28;20035;-51
2023/02/07 09:02:06;;;;;;;40.55;17.17;;;;;;;11.84;63.42;103893.84;5091289;28;20028;-53
2023/02/07 09:04:31;;;;;;;41.30;16.47;;;;;;;12.06;61.61;103900.97;5102983;28;20034;-52
2023/02/07 09:06:57;;;;;;;33.20;16.00;;;;;;;12.04;63.48;103897.56;5099564;28;20300;-53
2023/02/07 09:09:24;;;;;;;32.72;14.07;;;;;;;12.17;60.41;103892.84;5102778;28;20041;-55
2023/02/07 09:11:49;;;;;;;37.05;15.52;;;;;;;13.83;58.99;103895.38;5102549;28;20036;-52
2023/02/07 09:14:15;;;;;;;37.72;14.98;;;;;;;14.15;56.83;103900.44;5104219;28;20054;-51
2023/02/07 09:16:41;;;;;;;32.57;14.10;;;;;;;13.75;56.48;103894.25;5096514;28;20047;-53
2023/02/07 09:19:06;;;;;;;27.13;13.07;;;;;;;14.37;55.17;103895.72;5097488;28;20111;-57
2023/02/07 09:21:32;;;;;;;26.10;13.30;;;;;;;14.68;54.26;103890.06;5098449;28;20081;-55
2023/02/07 09:23:58;;;;;;;28.30;13.77;;;;;;;15.77;52.05;103891.09;5103714;28;20032;-53
2023/02/07 09:26:26;;;;;;;27.67;13.30;;;;;;;16.46;50.05;103901.25;5102048;28;20035;-53
2023/02/07 09:28:52;;;;;;;30.17;13.07;;;;;;;16.42;50.00;103894.47;5100130;28;20268;-52
2023/02/07 09:31:18;;;;;;;24.43;11.70;;;;;;;16.51;48.47;103897.22;5099182;28;20032;-51
2023/02/07 09:33:44;;;;;;;27.33;12.70;;;;;;;16.54;48.51;103891.47;5106166;28;20048;-48
2023/02/07 09:36:22;;;;;;;24.67;13.03;;;;;;;16.90;48.10;103902.94;5084010;28;20062;-54
2023/02/07 09:38:48;;;;;;;26.75;12.30;;;;;;;16.60;48.95;103896.22;5102163;28;20332;-52
2023/02/07 09:41:20;;;;;;;24.85;12.50;;;;;;;18.02;46.28;103898.28;5105875;28;20031;-50
2023/02/07 09:44:16;;;;;;;23.47;12.20;;;;;;;18.13;44.88;103902.50;5096044;28;20032;-52
2023/02/07 09:46:47;;;;;;;23.67;11.33;;;;;;;17.90;45.42;103908.59;5101536;28;20288;-56
2023/02/07 09:49:32;;;;;;;24.00;12.17;;;;;;;18.32;45.34;103903.97;5097777;28;20261;-53
2023/02/07 09:51:59;;;;;;;28.57;12.43;;;;;;;17.31;45.67;103902.28;5099872;28;20273;-52
2023/02/07 09:54:36;;;;;;;24.93;12.93;;;;;;;18.55;44.98;103892.41;5106645;28;20292;-54
2023/02/07 09:57:08;;;;;;;25.83;12.87;;;;;;;19.00;43.90;103896.31;5101720;28;20269;-50
2023/02/07 09:59:49;;;;;;;21.43;11.60;;;;;;;19.21;43.37;103905.69;5105671;28;20331;-52
2023/02/07 10:02:31;;;;;;;22.23;11.93;;;;;;;19.52;42.31;103906.69;5114239;28;20265;-51
2023/02/07 10:05:08;;;;;;;25.17;13.03;;;;;;;20.32;41.88;103912.59;5102947;28;20317;-54
2023/02/07 10:07:34;;;;;;;25.02;11.90;;;;;;;20.61;40.84;103905.47;5104762;28;20387;-53
2023/02/07 10:10:00;;;;;;;;;;;;;;;20.75;40.60;103904.59;5101972;28;20028;-48
2023/02/07 10:13:00;;;;;;;22.37;11.50;;;;;;;20.77;40.10;103898.97;5102568;28;19966;-51
2023/02/07 10:15:50;;;;;;;22.30;10.93;;;;;;;21.02;39.57;103899.53;5100809;28;20028;-52
2023/02/07 10:18:28;;;;;;;22.40;11.67;;;;;;;21.48;39.14;103900.22;5096206;28;20273;-55
2023/02/07 10:21:00;;;;;;;21.20;11.20;;;;;;;21.15;38.68;103906.16;5097887;28;20265;-53
2023/02/07 10:23:41;;;;;;;20.03;11.40;;;;;;;20.91;38.60;103908.19;5107313;28;20379;-52
2023/02/07 10:26:22;;;;;;;21.77;10.83;;;;;;;21.23;38.46;103911.47;5099382;28;20265;-53
2023/02/07 10:29:17;;;;;;;19.33;10.73;;;;;;;22.22;37.97;103924.50;5106483;28;20271;-52
2023/02/07 10:31:47;;;;;;;24.43;11.37;;;;;;;22.09;37.04;103922.53;5103739;28;20301;-54
2023/02/07 10:34:21;;;;;;;19.27;10.47;;;;;;;22.76;36.43;103925.69;5105942;28;20292;-50
2023/02/07 10:36:50;;;;;;;20.37;10.90;;;;;;;23.12;36.05;103920.97;5101929;28;20040;-49
2023/02/07 10:39:36;;;;;;;23.87;11.07;;;;;;;23.34;35.94;103924.41;5103251;28;20108;-54
2023/02/07 10:42:01;;;;;;;18.33;10.27;;;;;;;23.08;35.68;103920.53;5106562;28;20111;-48
2023/02/07 10:44:29;;;;;;;17.73;10.32;;;;;;;22.69;35.39;103922.06;5099765;28;20043;-54
2023/02/07 10:47:02;;;;;;;20.63;10.20;;;;;;;23.49;35.30;103927.81;5100340;28;20063;-51
2023/02/07 10:49:31;;;;;;;21.27;10.63;;;;;;;22.59;35.20;103920.56;5102161;28;20028;-52
2023/02/07 10:52:23;;;;;;;18.80;10.10;;;;;;;23.77;34.37;103925.94;5103102;28;20047;-47
2023/02/07 10:54:54;;;;;;;20.47;10.20;;;;;;;23.47;34.45;103920.84;5088274;28;20044;-54
2023/02/07 10:57:21;;;;;;;19.67;10.00;;;;;;;23.83;34.34;103925.09;5102468;28;20032;-53
2023/02/07 10:59:49;;;;;;;17.73;10.07;;;;;;;23.48;33.95;103926.13;5104240;28;20047;-53
2023/02/07 11:02:27;;;;;;;22.07;10.80;;;;;;;23.14;34.19;103921.63;5102943;28;20067;-50
2023/02/07 11:04:54;;;;;;;16.37;9.67;;;;;;;22.81;34.00;103923.19;5100019;28;20039;-55
2023/02/07 11:07:21;;;;;;;18.47;10.27;;;;;;;24.81;33.23;103922.59;5102526;28;20028;-50
2023/02/07 11:09:48;;;;;;;20.23;9.90;;;;;;;25.06;32.43;103930.88;5096443;28;20052;-49
2023/02/07 11:12:18;;;;;;;20.10;9.57;;;;;;;25.42;31.66;103922.25;5099712;28;20028;-53
2023/02/07 11:15:03;;;;;;;20.93;9.90;;;;;;;26.24;30.98;103929.59;5102146;28;20032;-55
2023/02/07 11:17:31;;;;;;;16.37;9.17;;;;;;;27.05;30.16;103929.44;5102955;28;20035;-51
2023/02/07 11:20:03;;;;;;;15.63;8.70;;;;;;;27.07;29.73;103925.63;5100874;28;20044;-52
2023/02/07 11:22:29;;;;;;;15.33;9.23;;;;;;;27.59;29.23;103914.91;5101884;28;20088;-50